sensor_id;sensor_type;location;lat;lon;timestamp;P1;durP1;ratioP1;P2;durP2;ratioP2
16262;SDS011;8239;48.594;8.598;2022-10-16T00:01:04;1.70;;;1.60;;
16262;SDS011;8239;48.594;8.598;2022-10-16T00:03:33;2.00;;;1.50;;
16262;SDS011;8239;48.594;8.598;2022-10-16T00:06:00;2.10;;;1.37;;
16262;SDS011;8239;48.594;8.598;2022-10-16T00:08:29;1.33;;;1.30;;
16262;SDS011;8239;48.594;8.598;2022-10-16T00:10:59;2.83;;;1.40;;
16262;SDS011;8239;48.594;8.598;2022-10-16T00:13:28;1.50;;;1.40;;
16262;SDS011;8239;48.594;8.598;2022-10-16T00:15:57;1.90;;;1.50;;
16262;SDS011;8239;48.594;8.598;2022-10-16T00:18:25;1.40;;;1.40;;
16262;SDS011;8239;48.594;8.598;2022-10-16T00:20:52;2.03;;;1.60;;
16262;SDS011;8239;48.594;8.598;2022-10-16T00:23:20;2.00;;;1.43;;
16262;SDS011;8239;48.594;8.598;2022-10-16T00:25:55;4.03;;;1.50;;
16262;SDS011;8239;48.594;8.598;2022-10-16T00:28:23;2.47;;;1.30;;
16262;SDS011;8239;48.594;8.598;2022-10-16T00:30:50;1.77;;;1.50;;
16262;SDS011;8239;48.594;8.598;2022-10-16T00:33:17;2.17;;;1.47;;
16262;SDS011;8239;48.594;8.598;2022-10-16T00:35:44;1.70;;;1.60;;
16262;SDS011;8239;48.594;8.598;2022-10-16T00:38:11;2.40;;;1.50;;
16262;SDS011;8239;48.594;8.598;2022-10-16T00:40:38;1.53;;;1.43;;
16262;SDS011;8239;48.594;8.598;2022-10-16T00:43:10;2.07;;;1.63;;
16262;SDS011;8239;48.594;8.598;2022-10-16T00:45:40;1.70;;;1.60;;
16262;SDS011;8239;48.594;8.598;2022-10-16T00:48:08;2.80;;;1.63;;
16262;SDS011;8239;48.594;8.598;2022-10-16T00:50:41;2.00;;;1.80;;
16262;SDS011;8239;48.594;8.598;2022-10-16T00:53:48;5.07;;;1.80;;
16262;SDS011;8239;48.594;8.598;2022-10-16T00:56:37;1.90;;;1.70;;
16262;SDS011;8239;48.594;8.598;2022-10-16T00:59:32;1.90;;;1.73;;
16262;SDS011;8239;48.594;8.598;2022-10-16T01:02:03;3.13;;;1.77;;
16262;SDS011;8239;48.594;8.598;2022-10-16T01:04:33;2.10;;;2.00;;
16262;SDS011;8239;48.594;8.598;2022-10-16T01:07:03;1.60;;;1.50;;
16262;SDS011;8239;48.594;8.598;2022-10-16T01:09:46;2.17;;;1.97;;
16262;SDS011;8239;48.594;8.598;2022-10-16T01:12:21;2.27;;;2.10;;
16262;SDS011;8239;48.594;8.598;2022-10-16T01:15:06;4.13;;;1.90;;
16262;SDS011;8239;48.594;8.598;2022-10-16T01:17:52;1.90;;;1.80;;
16262;SDS011;8239;48.594;8.598;2022-10-16T01:20:31;1.80;;;1.67;;
16262;SDS011;8239;48.594;8.598;2022-10-16T01:23:06;1.60;;;1.50;;
16262;SDS011;8239;48.594;8.598;2022-10-16T01:29:07;2.37;;;1.80;;
16262;SDS011;8239;48.594;8.598;2022-10-16T01:32:05;2.40;;;1.60;;
16262;SDS011;8239;48.594;8.598;2022-10-16T01:34:55;2.60;;;1.60;;
16262;SDS011;8239;48.594;8.598;2022-10-16T01:37:35;1.80;;;1.60;;
16262;SDS011;8239;48.594;8.598;2022-10-16T01:40:29;3.60;;;2.20;;
16262;SDS011;8239;48.594;8.598;2022-10-16T01:43:35;2.40;;;1.77;;
16262;SDS011;8239;48.594;8.598;2022-10-16T01:46:22;1.90;;;1.77;;
16262;SDS011;8239;48.594;8.598;2022-10-16T01:49:04;1.80;;;1.60;;
16262;SDS011;8239;48.594;8.598;2022-10-16T01:51:39;2.57;;;1.80;;
16262;SDS011;8239;48.594;8.598;2022-10-16T01:54:27;1.57;;;1.47;;
16262;SDS011;8239;48.594;8.598;2022-10-16T01:57:20;2.77;;;1.70;;
16262;SDS011;8239;48.594;8.598;2022-10-16T01:59:58;2.97;;;1.60;;
16262;SDS011;8239;48.594;8.598;2022-10-16T02:02:57;1.93;;;1.50;;
16262;SDS011;8239;48.594;8.598;2022-10-16T02:05:48;2.33;;;1.90;;
16262;SDS011;8239;48.594;8.598;2022-10-16T02:08:24;1.97;;;1.70;;
16262;SDS011;8239;48.594;8.598;2022-10-16T02:11:01;1.90;;;1.80;;
16262;SDS011;8239;48.594;8.598;2022-10-16T02:13:31;2.80;;;1.70;;
16262;SDS011;8239;48.594;8.598;2022-10-16T02:16:36;2.17;;;1.53;;
16262;SDS011;8239;48.594;8.598;2022-10-16T02:22:32;1.80;;;1.70;;
16262;SDS011;8239;48.594;8.598;2022-10-16T02:25:15;2.00;;;1.73;;
16262;SDS011;8239;48.594;8.598;2022-10-16T02:28:04;2.30;;;1.70;;
16262;SDS011;8239;48.594;8.598;2022-10-16T02:30:45;1.80;;;1.70;;
16262;SDS011;8239;48.594;8.598;2022-10-16T02:33:16;3.87;;;1.80;;
16262;SDS011;8239;48.594;8.598;2022-10-16T02:35:46;2.17;;;1.90;;
16262;SDS011;8239;48.594;8.598;2022-10-16T02:38:15;2.40;;;1.90;;
16262;SDS011;8239;48.594;8.598;2022-10-16T02:40:43;2.47;;;1.90;;
16262;SDS011;8239;48.594;8.598;2022-10-16T02:43:10;5.10;;;2.20;;
16262;SDS011;8239;48.594;8.598;2022-10-16T02:45:38;2.20;;;2.10;;
16262;SDS011;8239;48.594;8.598;2022-10-16T02:48:05;3.17;;;2.07;;
16262;SDS011;8239;48.594;8.598;2022-10-16T02:50:32;2.37;;;2.13;;
16262;SDS011;8239;48.594;8.598;2022-10-16T02:53:01;2.63;;;2.43;;
16262;SDS011;8239;48.594;8.598;2022-10-16T02:55:28;2.40;;;2.20;;
16262;SDS011;8239;48.594;8.598;2022-10-16T02:57:55;3.03;;;2.73;;
16262;SDS011;8239;48.594;8.598;2022-10-16T03:00:22;3.30;;;2.77;;
16262;SDS011;8239;48.594;8.598;2022-10-16T03:02:49;3.77;;;2.67;;
16262;SDS011;8239;48.594;8.598;2022-10-16T03:05:16;111.57;;;6.20;;
16262;SDS011;8239;48.594;8.598;2022-10-16T03:07:43;460.43;;;14.33;;
16262;SDS011;8239;48.594;8.598;2022-10-16T03:10:12;235.43;;;12.80;;
16262;SDS011;8239;48.594;8.598;2022-10-16T03:12:39;199.63;;;8.30;;
16262;SDS011;8239;48.594;8.598;2022-10-16T03:15:06;15.70;;;2.73;;
16262;SDS011;8239;48.594;8.598;2022-10-16T03:17:34;11.17;;;2.20;;
16262;SDS011;8239;48.594;8.598;2022-10-16T03:20:01;2.70;;;1.80;;
16262;SDS011;8239;48.594;8.598;2022-10-16T03:22:28;5.27;;;2.67;;
16262;SDS011;8239;48.594;8.598;2022-10-16T03:24:55;3.80;;;2.53;;
16262;SDS011;8239;48.594;8.598;2022-10-16T03:27:23;3.07;;;2.70;;
16262;SDS011;8239;48.594;8.598;2022-10-16T03:29:50;4.63;;;2.70;;
16262;SDS011;8239;48.594;8.598;2022-10-16T03:32:17;2.97;;;2.77;;
16262;SDS011;8239;48.594;8.598;2022-10-16T03:34:45;3.33;;;2.80;;
16262;SDS011;8239;48.594;8.598;2022-10-16T03:37:12;4.43;;;3.23;;
16262;SDS011;8239;48.594;8.598;2022-10-16T03:39:39;3.23;;;2.93;;
16262;SDS011;8239;48.594;8.598;2022-10-16T03:42:06;4.07;;;3.30;;
16262;SDS011;8239;48.594;8.598;2022-10-16T03:44:34;4.70;;;3.30;;
16262;SDS011;8239;48.594;8.598;2022-10-16T03:47:01;4.37;;;3.40;;
16262;SDS011;8239;48.594;8.598;2022-10-16T03:49:28;4.23;;;3.50;;
16262;SDS011;8239;48.594;8.598;2022-10-16T03:51:55;4.17;;;3.77;;
16262;SDS011;8239;48.594;8.598;2022-10-16T03:54:22;3.90;;;3.60;;
16262;SDS011;8239;48.594;8.598;2022-10-16T03:56:49;4.07;;;3.30;;
16262;SDS011;8239;48.594;8.598;2022-10-16T03:59:16;5.57;;;2.73;;
16262;SDS011;8239;48.594;8.598;2022-10-16T04:01:44;6.17;;;2.73;;
16262;SDS011;8239;48.594;8.598;2022-10-16T04:04:11;5.00;;;2.83;;
16262;SDS011;8239;48.594;8.598;2022-10-16T04:06:39;4.37;;;2.97;;
16262;SDS011;8239;48.594;8.598;2022-10-16T04:09:05;5.33;;;3.10;;
16262;SDS011;8239;48.594;8.598;2022-10-16T04:11:32;4.67;;;3.10;;
16262;SDS011;8239;48.594;8.598;2022-10-16T04:14:00;3.43;;;2.53;;
16262;SDS011;8239;48.594;8.598;2022-10-16T04:16:27;4.40;;;2.60;;
16262;SDS011;8239;48.594;8.598;2022-10-16T04:18:55;2.87;;;2.60;;
16262;SDS011;8239;48.594;8.598;2022-10-16T04:21:22;3.03;;;2.83;;
16262;SDS011;8239;48.594;8.598;2022-10-16T04:23:49;4.57;;;3.30;;
16262;SDS011;8239;48.594;8.598;2022-10-16T04:26:16;3.37;;;3.00;;
16262;SDS011;8239;48.594;8.598;2022-10-16T04:28:44;5.00;;;3.37;;
16262;SDS011;8239;48.594;8.598;2022-10-16T04:31:11;4.53;;;3.23;;
16262;SDS011;8239;48.594;8.598;2022-10-16T04:33:38;4.07;;;3.67;;
16262;SDS011;8239;48.594;8.598;2022-10-16T04:36:06;4.23;;;3.83;;
16262;SDS011;8239;48.594;8.598;2022-10-16T04:38:34;4.97;;;4.13;;
16262;SDS011;8239;48.594;8.598;2022-10-16T04:41:02;4.53;;;4.13;;
16262;SDS011;8239;48.594;8.598;2022-10-16T04:43:29;6.83;;;4.40;;
16262;SDS011;8239;48.594;8.598;2022-10-16T04:45:56;6.10;;;3.57;;
16262;SDS011;8239;48.594;8.598;2022-10-16T04:48:23;26.63;;;3.60;;
16262;SDS011;8239;48.594;8.598;2022-10-16T04:50:50;21.00;;;2.50;;
16262;SDS011;8239;48.594;8.598;2022-10-16T04:53:21;3.40;;;3.10;;
16262;SDS011;8239;48.594;8.598;2022-10-16T04:55:48;4.90;;;2.90;;
16262;SDS011;8239;48.594;8.598;2022-10-16T04:58:15;3.90;;;2.67;;
16262;SDS011;8239;48.594;8.598;2022-10-16T05:00:43;4.20;;;2.80;;
16262;SDS011;8239;48.594;8.598;2022-10-16T05:03:11;3.77;;;3.17;;
16262;SDS011;8239;48.594;8.598;2022-10-16T05:05:41;5.57;;;3.80;;
16262;SDS011;8239;48.594;8.598;2022-10-16T05:08:09;5.77;;;4.73;;
16262;SDS011;8239;48.594;8.598;2022-10-16T05:10:37;7.03;;;5.50;;
16262;SDS011;8239;48.594;8.598;2022-10-16T05:13:04;6.63;;;5.10;;
16262;SDS011;8239;48.594;8.598;2022-10-16T05:15:31;5.83;;;4.93;;
16262;SDS011;8239;48.594;8.598;2022-10-16T05:17:58;5.83;;;4.90;;
16262;SDS011;8239;48.594;8.598;2022-10-16T05:20:25;5.73;;;4.83;;
16262;SDS011;8239;48.594;8.598;2022-10-16T05:22:52;5.23;;;4.47;;
16262;SDS011;8239;48.594;8.598;2022-10-16T05:25:19;7.37;;;5.00;;
16262;SDS011;8239;48.594;8.598;2022-10-16T05:27:48;7.43;;;3.90;;
16262;SDS011;8239;48.594;8.598;2022-10-16T05:30:16;98.27;;;6.47;;
16262;SDS011;8239;48.594;8.598;2022-10-16T05:32:45;16.00;;;3.70;;
16262;SDS011;8239;48.594;8.598;2022-10-16T05:35:14;5.27;;;3.47;;
16262;SDS011;8239;48.594;8.598;2022-10-16T05:37:41;6.27;;;4.10;;
16262;SDS011;8239;48.594;8.598;2022-10-16T05:40:08;4.50;;;4.00;;
16262;SDS011;8239;48.594;8.598;2022-10-16T05:42:36;3.80;;;3.50;;
16262;SDS011;8239;48.594;8.598;2022-10-16T05:45:05;4.80;;;3.47;;
16262;SDS011;8239;48.594;8.598;2022-10-16T05:47:34;5.47;;;3.20;;
16262;SDS011;8239;48.594;8.598;2022-10-16T05:50:02;4.73;;;2.97;;
16262;SDS011;8239;48.594;8.598;2022-10-16T05:52:30;2.87;;;2.67;;
16262;SDS011;8239;48.594;8.598;2022-10-16T05:54:57;3.93;;;3.27;;
16262;SDS011;8239;48.594;8.598;2022-10-16T05:57:24;7.03;;;4.53;;
16262;SDS011;8239;48.594;8.598;2022-10-16T05:59:51;5.80;;;4.80;;
16262;SDS011;8239;48.594;8.598;2022-10-16T06:02:19;5.33;;;4.33;;
16262;SDS011;8239;48.594;8.598;2022-10-16T06:04:46;7.63;;;4.47;;
16262;SDS011;8239;48.594;8.598;2022-10-16T06:07:13;5.73;;;5.00;;
16262;SDS011;8239;48.594;8.598;2022-10-16T06:09:40;8.47;;;4.70;;
16262;SDS011;8239;48.594;8.598;2022-10-16T06:12:07;9.27;;;3.93;;
16262;SDS011;8239;48.594;8.598;2022-10-16T06:14:34;10.00;;;3.70;;
16262;SDS011;8239;48.594;8.598;2022-10-16T06:17:01;13.10;;;3.13;;
16262;SDS011;8239;48.594;8.598;2022-10-16T06:19:29;3.40;;;2.73;;
16262;SDS011;8239;48.594;8.598;2022-10-16T06:21:56;3.93;;;2.73;;
16262;SDS011;8239;48.594;8.598;2022-10-16T06:24:24;3.90;;;2.97;;
16262;SDS011;8239;48.594;8.598;2022-10-16T06:26:51;3.07;;;2.73;;
16262;SDS011;8239;48.594;8.598;2022-10-16T06:29:18;2.83;;;2.63;;
16262;SDS011;8239;48.594;8.598;2022-10-16T06:31:47;2.83;;;2.60;;
16262;SDS011;8239;48.594;8.598;2022-10-16T06:34:14;4.40;;;2.70;;
16262;SDS011;8239;48.594;8.598;2022-10-16T06:36:43;2.70;;;2.50;;
16262;SDS011;8239;48.594;8.598;2022-10-16T06:39:10;2.83;;;2.53;;
16262;SDS011;8239;48.594;8.598;2022-10-16T06:41:37;3.43;;;2.20;;
16262;SDS011;8239;48.594;8.598;2022-10-16T06:44:05;3.53;;;1.90;;
16262;SDS011;8239;48.594;8.598;2022-10-16T06:46:32;3.27;;;2.40;;
16262;SDS011;8239;48.594;8.598;2022-10-16T06:48:59;2.47;;;1.90;;
16262;SDS011;8239;48.594;8.598;2022-10-16T06:51:27;2.00;;;1.83;;
16262;SDS011;8239;48.594;8.598;2022-10-16T06:53:56;2.30;;;2.10;;
16262;SDS011;8239;48.594;8.598;2022-10-16T06:56:23;2.10;;;1.90;;
16262;SDS011;8239;48.594;8.598;2022-10-16T06:58:52;1.60;;;1.50;;
16262;SDS011;8239;48.594;8.598;2022-10-16T07:01:20;2.10;;;1.90;;
16262;SDS011;8239;48.594;8.598;2022-10-16T07:03:48;2.07;;;1.97;;
16262;SDS011;8239;48.594;8.598;2022-10-16T07:06:16;1.57;;;1.47;;
16262;SDS011;8239;48.594;8.598;2022-10-16T07:08:44;1.53;;;1.40;;
16262;SDS011;8239;48.594;8.598;2022-10-16T07:11:14;1.90;;;1.80;;
16262;SDS011;8239;48.594;8.598;2022-10-16T07:13:42;2.90;;;1.63;;
16262;SDS011;8239;48.594;8.598;2022-10-16T07:16:11;8.00;;;2.40;;
16262;SDS011;8239;48.594;8.598;2022-10-16T07:18:40;3.97;;;2.60;;
16262;SDS011;8239;48.594;8.598;2022-10-16T07:21:09;4.07;;;2.30;;
16262;SDS011;8239;48.594;8.598;2022-10-16T07:23:38;2.27;;;2.10;;
16262;SDS011;8239;48.594;8.598;2022-10-16T07:26:06;2.10;;;1.70;;
16262;SDS011;8239;48.594;8.598;2022-10-16T07:28:35;1.50;;;1.50;;
16262;SDS011;8239;48.594;8.598;2022-10-16T07:31:03;1.97;;;1.30;;
16262;SDS011;8239;48.594;8.598;2022-10-16T07:33:33;3.03;;;1.30;;
16262;SDS011;8239;48.594;8.598;2022-10-16T07:36:01;1.90;;;1.00;;
16262;SDS011;8239;48.594;8.598;2022-10-16T07:38:28;2.10;;;2.00;;
16262;SDS011;8239;48.594;8.598;2022-10-16T07:40:55;16.87;;;3.37;;
16262;SDS011;8239;48.594;8.598;2022-10-16T07:43:24;8.30;;;4.20;;
16262;SDS011;8239;48.594;8.598;2022-10-16T07:45:52;3.77;;;3.47;;
16262;SDS011;8239;48.594;8.598;2022-10-16T07:48:21;2.80;;;2.60;;
16262;SDS011;8239;48.594;8.598;2022-10-16T07:50:48;2.45;;;2.17;;
16262;SDS011;8239;48.594;8.598;2022-10-16T07:53:15;2.40;;;2.03;;
16262;SDS011;8239;48.594;8.598;2022-10-16T07:55:42;4.53;;;2.08;;
16262;SDS011;8239;48.594;8.598;2022-10-16T07:58:09;1.65;;;1.55;;
16262;SDS011;8239;48.594;8.598;2022-10-16T08:00:36;2.03;;;1.45;;
16262;SDS011;8239;48.594;8.598;2022-10-16T08:03:05;4.10;;;1.60;;
16262;SDS011;8239;48.594;8.598;2022-10-16T08:05:32;2.50;;;1.55;;
16262;SDS011;8239;48.594;8.598;2022-10-16T08:08:00;2.85;;;1.75;;
16262;SDS011;8239;48.594;8.598;2022-10-16T08:10:28;3.03;;;1.80;;
16262;SDS011;8239;48.594;8.598;2022-10-16T08:12:56;1.80;;;1.60;;
16262;SDS011;8239;48.594;8.598;2022-10-16T08:15:24;2.28;;;1.60;;
16262;SDS011;8239;48.594;8.598;2022-10-16T08:17:54;1.85;;;1.30;;
16262;SDS011;8239;48.594;8.598;2022-10-16T08:20:24;2.10;;;1.00;;
16262;SDS011;8239;48.594;8.598;2022-10-16T08:22:51;2.00;;;1.20;;
16262;SDS011;8239;48.594;8.598;2022-10-16T08:25:19;1.65;;;1.20;;
16262;SDS011;8239;48.594;8.598;2022-10-16T08:27:46;2.70;;;1.27;;
16262;SDS011;8239;48.594;8.598;2022-10-16T08:30:13;1.80;;;1.50;;
16262;SDS011;8239;48.594;8.598;2022-10-16T08:32:41;2.35;;;1.33;;
16262;SDS011;8239;48.594;8.598;2022-10-16T08:35:08;1.88;;;1.45;;
16262;SDS011;8239;48.594;8.598;2022-10-16T08:37:37;2.85;;;1.50;;
16262;SDS011;8239;48.594;8.598;2022-10-16T08:40:05;1.70;;;1.52;;
16262;SDS011;8239;48.594;8.598;2022-10-16T08:42:42;2.10;;;1.23;;
16262;SDS011;8239;48.594;8.598;2022-10-16T08:45:24;2.80;;;1.30;;
16262;SDS011;8239;48.594;8.598;2022-10-16T08:48:04;1.52;;;1.42;;
16262;SDS011;8239;48.594;8.598;2022-10-16T08:50:38;1.52;;;1.38;;
16262;SDS011;8239;48.594;8.598;2022-10-16T08:53:09;1.30;;;1.20;;
16262;SDS011;8239;48.594;8.598;2022-10-16T08:55:41;2.35;;;1.13;;
16262;SDS011;8239;48.594;8.598;2022-10-16T08:58:12;1.10;;;1.00;;
16262;SDS011;8239;48.594;8.598;2022-10-16T09:00:40;1.00;;;1.00;;
16262;SDS011;8239;48.594;8.598;2022-10-16T09:03:12;2.58;;;1.13;;
16262;SDS011;8239;48.594;8.598;2022-10-16T09:06:06;1.05;;;1.05;;
16262;SDS011;8239;48.594;8.598;2022-10-16T09:08:44;1.60;;;1.50;;
16262;SDS011;8239;48.594;8.598;2022-10-16T09:11:19;1.73;;;1.60;;
16262;SDS011;8239;48.594;8.598;2022-10-16T09:13:54;2.08;;;1.65;;
16262;SDS011;8239;48.594;8.598;2022-10-16T09:16:27;1.88;;;1.35;;
16262;SDS011;8239;48.594;8.598;2022-10-16T09:19:00;1.60;;;1.23;;
16262;SDS011;8239;48.594;8.598;2022-10-16T09:21:33;1.80;;;1.65;;
16262;SDS011;8239;48.594;8.598;2022-10-16T09:24:08;1.50;;;1.40;;
16262;SDS011;8239;48.594;8.598;2022-10-16T09:26:38;1.65;;;1.20;;
16262;SDS011;8239;48.594;8.598;2022-10-16T09:29:05;2.47;;;1.30;;
16262;SDS011;8239;48.594;8.598;2022-10-16T09:31:32;2.42;;;1.50;;
16262;SDS011;8239;48.594;8.598;2022-10-16T09:34:03;1.83;;;1.40;;
16262;SDS011;8239;48.594;8.598;2022-10-16T09:36:35;2.15;;;1.60;;
16262;SDS011;8239;48.594;8.598;2022-10-16T09:39:08;1.98;;;1.40;;
16262;SDS011;8239;48.594;8.598;2022-10-16T09:41:37;1.95;;;1.25;;
16262;SDS011;8239;48.594;8.598;2022-10-16T09:44:06;2.45;;;1.30;;
16262;SDS011;8239;48.594;8.598;2022-10-16T09:46:45;2.05;;;1.23;;
16262;SDS011;8239;48.594;8.598;2022-10-16T09:49:20;1.20;;;1.10;;
16262;SDS011;8239;48.594;8.598;2022-10-16T09:51:48;1.17;;;1.17;;
16262;SDS011;8239;48.594;8.598;2022-10-16T09:54:18;2.42;;;1.50;;
16262;SDS011;8239;48.594;8.598;2022-10-16T09:56:46;1.70;;;1.60;;
16262;SDS011;8239;48.594;8.598;2022-10-16T09:59:17;1.45;;;1.35;;
16262;SDS011;8239;48.594;8.598;2022-10-16T10:01:46;1.67;;;1.45;;
16262;SDS011;8239;48.594;8.598;2022-10-16T10:04:15;1.70;;;1.33;;
16262;SDS011;8239;48.594;8.598;2022-10-16T10:06:43;1.58;;;1.40;;
16262;SDS011;8239;48.594;8.598;2022-10-16T10:09:16;2.25;;;1.30;;
16262;SDS011;8239;48.594;8.598;2022-10-16T10:11:48;1.83;;;1.27;;
16262;SDS011;8239;48.594;8.598;2022-10-16T10:14:30;1.90;;;1.40;;
16262;SDS011;8239;48.594;8.598;2022-10-16T10:17:11;1.38;;;1.27;;
16262;SDS011;8239;48.594;8.598;2022-10-16T10:19:42;2.55;;;1.20;;
16262;SDS011;8239;48.594;8.598;2022-10-16T10:22:15;2.72;;;1.67;;
16262;SDS011;8239;48.594;8.598;2022-10-16T10:24:46;1.10;;;1.10;;
16262;SDS011;8239;48.594;8.598;2022-10-16T10:27:21;2.83;;;1.30;;
16262;SDS011;8239;48.594;8.598;2022-10-16T10:29:56;1.30;;;1.20;;
16262;SDS011;8239;48.594;8.598;2022-10-16T10:32:28;1.33;;;1.20;;
16262;SDS011;8239;48.594;8.598;2022-10-16T10:35:07;1.88;;;1.30;;
16262;SDS011;8239;48.594;8.598;2022-10-16T10:40:43;1.70;;;1.27;;
16262;SDS011;8239;48.594;8.598;2022-10-16T10:43:19;1.10;;;1.10;;
16262;SDS011;8239;48.594;8.598;2022-10-16T10:45:56;1.70;;;1.20;;
16262;SDS011;8239;48.594;8.598;2022-10-16T10:48:38;1.52;;;1.20;;
16262;SDS011;8239;48.594;8.598;2022-10-16T10:51:17;1.50;;;1.40;;
16262;SDS011;8239;48.594;8.598;2022-10-16T10:53:50;1.85;;;1.20;;
16262;SDS011;8239;48.594;8.598;2022-10-16T10:56:28;1.50;;;1.25;;
16262;SDS011;8239;48.594;8.598;2022-10-16T10:59:13;1.38;;;1.20;;
16262;SDS011;8239;48.594;8.598;2022-10-16T11:01:54;1.45;;;1.30;;
16262;SDS011;8239;48.594;8.598;2022-10-16T11:04:33;1.38;;;1.27;;
16262;SDS011;8239;48.594;8.598;2022-10-16T11:07:23;1.20;;;1.10;;
16262;SDS011;8239;48.594;8.598;2022-10-16T11:09:56;1.30;;;1.20;;
16262;SDS011;8239;48.594;8.598;2022-10-16T11:12:29;1.30;;;1.20;;
16262;SDS011;8239;48.594;8.598;2022-10-16T11:15:02;1.88;;;1.30;;
16262;SDS011;8239;48.594;8.598;2022-10-16T11:17:34;2.63;;;1.30;;
16262;SDS011;8239;48.594;8.598;2022-10-16T11:20:05;1.58;;;1.23;;
16262;SDS011;8239;48.594;8.598;2022-10-16T11:22:41;2.30;;;1.40;;
16262;SDS011;8239;48.594;8.598;2022-10-16T11:25:13;1.80;;;1.40;;
16262;SDS011;8239;48.594;8.598;2022-10-16T11:27:47;1.48;;;1.35;;
16262;SDS011;8239;48.594;8.598;2022-10-16T11:30:18;1.98;;;1.50;;
16262;SDS011;8239;48.594;8.598;2022-10-16T11:32:52;1.70;;;1.60;;
16262;SDS011;8239;48.594;8.598;2022-10-16T11:35:32;6.30;;;1.35;;
16262;SDS011;8239;48.594;8.598;2022-10-16T11:38:08;3.22;;;1.17;;
16262;SDS011;8239;48.594;8.598;2022-10-16T11:40:39;1.40;;;1.30;;
16262;SDS011;8239;48.594;8.598;2022-10-16T11:43:12;1.50;;;1.40;;
16262;SDS011;8239;48.594;8.598;2022-10-16T11:45:43;1.30;;;1.20;;
16262;SDS011;8239;48.594;8.598;2022-10-16T11:48:15;1.90;;;1.30;;
16262;SDS011;8239;48.594;8.598;2022-10-16T11:50:49;2.70;;;1.38;;
16262;SDS011;8239;48.594;8.598;2022-10-16T11:53:21;2.72;;;1.40;;
16262;SDS011;8239;48.594;8.598;2022-10-16T11:55:58;1.92;;;1.48;;
16262;SDS011;8239;48.594;8.598;2022-10-16T11:58:27;1.52;;;1.33;;
16262;SDS011;8239;48.594;8.598;2022-10-16T12:00:59;1.52;;;1.40;;
16262;SDS011;8239;48.594;8.598;2022-10-16T12:03:33;1.48;;;1.38;;
16262;SDS011;8239;48.594;8.598;2022-10-16T12:06:19;1.50;;;1.40;;
16262;SDS011;8239;48.594;8.598;2022-10-16T12:08:53;1.30;;;1.20;;
16262;SDS011;8239;48.594;8.598;2022-10-16T12:11:31;1.88;;;1.40;;
16262;SDS011;8239;48.594;8.598;2022-10-16T12:14:07;4.13;;;1.60;;
16262;SDS011;8239;48.594;8.598;2022-10-16T12:16:53;1.83;;;1.50;;
16262;SDS011;8239;48.594;8.598;2022-10-16T12:19:22;3.90;;;1.45;;
16262;SDS011;8239;48.594;8.598;2022-10-16T12:21:50;1.50;;;1.40;;
16262;SDS011;8239;48.594;8.598;2022-10-16T12:27:20;1.60;;;1.40;;
16262;SDS011;8239;48.594;8.598;2022-10-16T12:29:55;1.45;;;1.33;;
16262;SDS011;8239;48.594;8.598;2022-10-16T12:32:28;1.80;;;1.30;;
16262;SDS011;8239;48.594;8.598;2022-10-16T12:34:57;1.88;;;1.30;;
16262;SDS011;8239;48.594;8.598;2022-10-16T12:37:27;2.25;;;1.35;;
16262;SDS011;8239;48.594;8.598;2022-10-16T12:39:57;2.70;;;1.60;;
16262;SDS011;8239;48.594;8.598;2022-10-16T12:42:32;1.48;;;1.40;;
16262;SDS011;8239;48.594;8.598;2022-10-16T12:45:13;1.42;;;1.40;;
16262;SDS011;8239;48.594;8.598;2022-10-16T12:47:51;1.38;;;1.35;;
16262;SDS011;8239;48.594;8.598;2022-10-16T12:52:54;2.45;;;1.50;;
16262;SDS011;8239;48.594;8.598;2022-10-16T12:55:21;1.50;;;1.35;;
16262;SDS011;8239;48.594;8.598;2022-10-16T12:57:56;1.73;;;1.63;;
16262;SDS011;8239;48.594;8.598;2022-10-16T13:00:35;1.55;;;1.45;;
16262;SDS011;8239;48.594;8.598;2022-10-16T13:06:13;3.88;;;1.60;;
16262;SDS011;8239;48.594;8.598;2022-10-16T13:08:53;1.70;;;1.60;;
16262;SDS011;8239;48.594;8.598;2022-10-16T13:11:35;1.60;;;1.50;;
16262;SDS011;8239;48.594;8.598;2022-10-16T13:14:32;1.52;;;1.50;;
16262;SDS011;8239;48.594;8.598;2022-10-16T13:17:18;1.60;;;1.50;;
16262;SDS011;8239;48.594;8.598;2022-10-16T13:19:54;1.58;;;1.48;;
16262;SDS011;8239;48.594;8.598;2022-10-16T13:22:29;2.20;;;1.45;;
16262;SDS011;8239;48.594;8.598;2022-10-16T13:25:20;1.88;;;1.50;;
16262;SDS011;8239;48.594;8.598;2022-10-16T13:27:54;1.52;;;1.42;;
16262;SDS011;8239;48.594;8.598;2022-10-16T13:30:31;1.80;;;1.60;;
16262;SDS011;8239;48.594;8.598;2022-10-16T13:33:03;1.95;;;1.48;;
16262;SDS011;8239;48.594;8.598;2022-10-16T13:35:33;1.65;;;1.55;;
16262;SDS011;8239;48.594;8.598;2022-10-16T13:40:51;1.58;;;1.48;;
16262;SDS011;8239;48.594;8.598;2022-10-16T13:43:21;1.65;;;1.40;;
16262;SDS011;8239;48.594;8.598;2022-10-16T13:45:55;4.20;;;1.50;;
16262;SDS011;8239;48.594;8.598;2022-10-16T13:48:24;1.60;;;1.50;;
16262;SDS011;8239;48.594;8.598;2022-10-16T13:50:58;1.70;;;1.60;;
16262;SDS011;8239;48.594;8.598;2022-10-16T13:53:26;1.88;;;1.70;;
16262;SDS011;8239;48.594;8.598;2022-10-16T13:55:53;1.60;;;1.50;;
16262;SDS011;8239;48.594;8.598;2022-10-16T13:58:20;2.80;;;1.50;;
16262;SDS011;8239;48.594;8.598;2022-10-16T14:00:54;1.60;;;1.50;;
16262;SDS011;8239;48.594;8.598;2022-10-16T14:03:24;1.60;;;1.50;;
16262;SDS011;8239;48.594;8.598;2022-10-16T14:05:53;1.92;;;1.33;;
16262;SDS011;8239;48.594;8.598;2022-10-16T14:08:22;2.47;;;1.50;;
16262;SDS011;8239;48.594;8.598;2022-10-16T14:10:51;2.25;;;1.60;;
16262;SDS011;8239;48.594;8.598;2022-10-16T14:13:22;1.60;;;1.50;;
16262;SDS011;8239;48.594;8.598;2022-10-16T14:15:56;2.30;;;1.50;;
16262;SDS011;8239;48.594;8.598;2022-10-16T14:18:25;2.20;;;1.70;;
16262;SDS011;8239;48.594;8.598;2022-10-16T14:20:53;1.73;;;1.60;;
16262;SDS011;8239;48.594;8.598;2022-10-16T14:23:22;1.70;;;1.60;;
16262;SDS011;8239;48.594;8.598;2022-10-16T14:26:04;1.70;;;1.60;;
16262;SDS011;8239;48.594;8.598;2022-10-16T14:28:39;1.42;;;1.35;;
16262;SDS011;8239;48.594;8.598;2022-10-16T14:31:19;1.80;;;1.70;;
16262;SDS011;8239;48.594;8.598;2022-10-16T14:33:53;2.78;;;1.70;;
16262;SDS011;8239;48.594;8.598;2022-10-16T14:36:21;2.10;;;1.70;;
16262;SDS011;8239;48.594;8.598;2022-10-16T14:38:52;1.83;;;1.70;;
16262;SDS011;8239;48.594;8.598;2022-10-16T14:41:27;1.95;;;1.70;;
16262;SDS011;8239;48.594;8.598;2022-10-16T14:43:55;3.17;;;1.60;;
16262;SDS011;8239;48.594;8.598;2022-10-16T14:46:28;3.13;;;1.77;;
16262;SDS011;8239;48.594;8.598;2022-10-16T14:49:02;2.47;;;1.58;;
16262;SDS011;8239;48.594;8.598;2022-10-16T14:51:39;1.92;;;1.73;;
16262;SDS011;8239;48.594;8.598;2022-10-16T14:54:09;2.92;;;2.22;;
16262;SDS011;8239;48.594;8.598;2022-10-16T14:56:42;4.25;;;1.88;;
16262;SDS011;8239;48.594;8.598;2022-10-16T14:59:13;1.60;;;1.50;;
16262;SDS011;8239;48.594;8.598;2022-10-16T15:01:44;2.63;;;1.77;;
16262;SDS011;8239;48.594;8.598;2022-10-16T15:04:13;2.90;;;1.70;;
16262;SDS011;8239;48.594;8.598;2022-10-16T15:06:40;3.10;;;1.67;;
16262;SDS011;8239;48.594;8.598;2022-10-16T15:09:08;1.98;;;1.60;;
16262;SDS011;8239;48.594;8.598;2022-10-16T15:11:35;1.90;;;1.80;;
16262;SDS011;8239;48.594;8.598;2022-10-16T15:14:02;3.30;;;2.00;;
16262;SDS011;8239;48.594;8.598;2022-10-16T15:16:30;4.05;;;1.77;;
16262;SDS011;8239;48.594;8.598;2022-10-16T15:18:57;1.98;;;1.73;;
16262;SDS011;8239;48.594;8.598;2022-10-16T15:21:26;2.35;;;1.77;;
16262;SDS011;8239;48.594;8.598;2022-10-16T15:23:55;3.60;;;1.90;;
16262;SDS011;8239;48.594;8.598;2022-10-16T15:26:23;2.15;;;1.90;;
16262;SDS011;8239;48.594;8.598;2022-10-16T15:28:50;2.72;;;1.92;;
16262;SDS011;8239;48.594;8.598;2022-10-16T15:31:17;3.03;;;2.00;;
16262;SDS011;8239;48.594;8.598;2022-10-16T15:33:45;2.42;;;2.00;;
16262;SDS011;8239;48.594;8.598;2022-10-16T15:36:18;3.65;;;1.90;;
16262;SDS011;8239;48.594;8.598;2022-10-16T15:38:52;3.17;;;2.20;;
16262;SDS011;8239;48.594;8.598;2022-10-16T15:41:20;2.40;;;2.00;;
16262;SDS011;8239;48.594;8.598;2022-10-16T15:43:48;2.90;;;1.80;;
16262;SDS011;8239;48.594;8.598;2022-10-16T15:46:17;3.15;;;2.20;;
16262;SDS011;8239;48.594;8.598;2022-10-16T15:48:45;3.95;;;2.30;;